createdAt,value
2022-08-17T00:00:43.055Z,24.61
2022-08-17T00:03:39.103Z,24.70
2022-08-17T00:06:12.372Z,24.67
2022-08-17T00:08:42.975Z,24.74
2022-08-17T00:11:21.560Z,24.65
2022-08-17T00:14:00.007Z,24.59
2022-08-17T00:16:56.058Z,24.53
2022-08-17T00:19:25.852Z,24.42
2022-08-17T00:22:34.522Z,24.52
2022-08-17T00:24:50.570Z,24.53
2022-08-17T00:27:18.564Z,24.58
2022-08-17T00:29:46.115Z,24.58
2022-08-17T00:33:15.124Z,24.64
2022-08-17T00:35:06.767Z,24.57
2022-08-17T00:37:36.174Z,24.39
2022-08-17T00:40:04.618Z,24.34
2022-08-17T00:42:33.078Z,24.21
2022-08-17T00:45:00.037Z,24.23
2022-08-17T00:47:30.034Z,24.11
2022-08-17T00:49:56.898Z,23.76
2022-08-17T00:52:31.551Z,23.67
2022-08-17T00:55:01.908Z,23.84
2022-08-17T00:57:36.632Z,23.81
2022-08-17T01:00:21.343Z,23.74
2022-08-17T01:02:55.358Z,23.75
2022-08-17T01:05:27.624Z,23.71
2022-08-17T01:07:58.796Z,23.63
2022-08-17T01:10:58.765Z,23.67
2022-08-17T01:13:28.626Z,23.75
2022-08-17T01:16:12.887Z,23.71
2022-08-17T01:18:44.886Z,23.75
2022-08-17T01:21:48.539Z,23.61
2022-08-17T01:24:16.157Z,23.68
2022-08-17T01:26:44.849Z,23.67
2022-08-17T01:29:13.023Z,23.66
2022-08-17T01:31:46.413Z,23.57
2022-08-17T01:34:19.446Z,23.58
2022-08-17T01:36:49.444Z,23.45
2022-08-17T01:39:38.440Z,23.43
2022-08-17T01:42:27.246Z,23.51
2022-08-17T01:44:58.959Z,23.53
2022-08-17T01:47:26.192Z,23.55
2022-08-17T01:49:56.466Z,23.62
2022-08-17T01:52:23.780Z,23.50
2022-08-17T01:54:52.589Z,23.34
2022-08-17T01:57:19.619Z,23.52
2022-08-17T01:59:48.809Z,23.39
2022-08-17T02:02:30.482Z,23.38
2022-08-17T02:04:58.803Z,23.30
2022-08-17T02:07:26.158Z,23.32
2022-08-17T02:09:54.072Z,23.11
2022-08-17T02:12:39.328Z,23.16
2022-08-17T02:15:15.192Z,23.19
2022-08-17T02:17:43.410Z,23.17
2022-08-17T02:20:10.875Z,23.24
2022-08-17T02:22:41.198Z,23.16
2022-08-17T02:25:12.377Z,23.17
2022-08-17T02:27:41.766Z,22.84
2022-08-17T02:30:59.760Z,22.70
2022-08-17T02:33:06.407Z,22.56
2022-08-17T02:35:42.911Z,22.61
2022-08-17T02:38:10.325Z,22.55
2022-08-17T02:40:37.532Z,22.68
2022-08-17T02:43:05.270Z,22.65
2022-08-17T02:45:32.334Z,22.62
2022-08-17T02:47:59.411Z,22.69
2022-08-17T02:50:26.823Z,22.66
2022-08-17T02:53:01.735Z,22.37
2022-08-17T02:55:43.024Z,22.33
2022-08-17T02:58:12.203Z,22.56
2022-08-17T03:00:44.195Z,22.67
2022-08-17T03:03:13.576Z,22.57
2022-08-17T03:05:44.310Z,22.62
2022-08-17T03:08:12.959Z,22.63
2022-08-17T03:10:41.368Z,22.78
2022-08-17T03:13:08.786Z,22.84
2022-08-17T03:15:43.862Z,22.87
2022-08-17T03:18:19.249Z,22.76
2022-08-17T03:20:54.517Z,22.72
2022-08-17T03:23:25.358Z,22.58
2022-08-17T03:25:54.083Z,22.61
2022-08-17T03:28:22.015Z,22.61
2022-08-17T03:30:51.697Z,22.63
2022-08-17T03:33:21.748Z,22.64
2022-08-17T03:35:49.334Z,22.64
2022-08-17T03:38:17.850Z,22.57
2022-08-17T03:40:58.021Z,22.66
2022-08-17T03:43:29.199Z,22.51
2022-08-17T03:46:28.777Z,22.47
2022-08-17T03:49:22.783Z,22.46
2022-08-17T03:52:08.446Z,22.50
2022-08-17T03:54:53.632Z,22.33
2022-08-17T03:57:20.518Z,22.33
2022-08-17T03:59:47.682Z,22.23
2022-08-17T04:02:24.261Z,22.17
2022-08-17T04:04:54.173Z,22.31
2022-08-17T04:07:24.279Z,22.28
2022-08-17T04:09:51.417Z,22.06
2022-08-17T04:12:21.102Z,22.16
2022-08-17T04:14:51.637Z,22.18
2022-08-17T04:17:26.919Z,22.20
2022-08-17T04:19:54.980Z,22.12
2022-08-17T04:22:33.318Z,22.27
2022-08-17T04:25:17.770Z,22.14
2022-08-17T04:27:48.745Z,22.19
2022-08-17T04:30:20.737Z,22.20
2022-08-17T04:33:15.066Z,22.20
2022-08-17T04:35:45.873Z,22.29
2022-08-17T04:38:17.212Z,22.28
2022-08-17T04:41:03.525Z,22.35
2022-08-17T04:43:32.306Z,22.18
2022-08-17T04:46:06.312Z,22.08
2022-08-17T04:48:43.088Z,22.09
2022-08-17T04:51:13.660Z,22.19
2022-08-17T04:53:45.203Z,22.19
2022-08-17T04:56:16.933Z,22.27
2022-08-17T04:58:48.314Z,22.32
2022-08-17T05:01:24.529Z,22.54
2022-08-17T05:03:59.376Z,22.56
2022-08-17T05:06:28.369Z,22.58
2022-08-17T05:08:57.144Z,22.81
2022-08-17T05:11:28.656Z,22.93
2022-08-17T05:13:58.110Z,23.19
2022-08-17T05:16:29.668Z,23.31
2022-08-17T05:19:04.585Z,23.40
2022-08-17T05:21:31.657Z,23.53
2022-08-17T05:23:59.603Z,23.63
2022-08-17T05:26:32.434Z,23.60
2022-08-17T05:29:03.484Z,23.88
2022-08-17T05:31:33.625Z,24.00
2022-08-17T05:34:00.707Z,24.17
2022-08-17T05:36:37.986Z,24.15
2022-08-17T05:39:17.077Z,24.19
2022-08-17T05:41:50.692Z,24.42
2022-08-17T05:44:17.568Z,24.55
2022-08-17T05:46:50.929Z,24.62
2022-08-17T05:49:24.827Z,24.67
2022-08-17T05:52:29.401Z,24.86
2022-08-17T05:55:14.603Z,24.97
2022-08-17T05:57:59.919Z,25.11
2022-08-17T06:00:42.090Z,25.31
2022-08-17T06:03:57.065Z,25.40
2022-08-17T06:06:49.119Z,25.67
2022-08-17T06:09:48.048Z,25.84
2022-08-17T06:12:43.019Z,25.98
2022-08-17T06:15:33.285Z,25.91
2022-08-17T06:18:08.640Z,26.13
2022-08-17T06:20:53.812Z,26.21
2022-08-17T06:23:34.989Z,26.38
2022-08-17T06:26:39.585Z,26.37
2022-08-17T06:29:38.976Z,26.52
2022-08-17T06:32:09.842Z,26.62
2022-08-17T06:34:41.624Z,26.81
2022-08-17T06:37:33.167Z,27.00
2022-08-17T06:40:17.355Z,27.15
2022-08-17T06:43:06.611Z,27.35
2022-08-17T06:45:49.210Z,27.54
2022-08-17T06:48:33.202Z,27.57
2022-08-17T06:51:20.395Z,27.72
2022-08-17T06:54:20.596Z,27.77
2022-08-17T06:57:18.778Z,27.96
2022-08-17T06:59:56.924Z,28.24
2022-08-17T07:02:52.884Z,28.37
2022-08-17T07:05:26.349Z,28.52
2022-08-17T07:08:02.072Z,28.85
2022-08-17T07:10:50.761Z,28.93
2022-08-17T07:13:33.242Z,28.81
2022-08-17T07:16:25.768Z,28.89
2022-08-17T07:18:57.258Z,29.13
2022-08-17T07:21:47.758Z,29.33
2022-08-17T07:24:39.368Z,29.61
2022-08-17T07:27:31.196Z,29.80
2022-08-17T07:30:10.096Z,29.89
2022-08-17T07:32:53.874Z,29.89
2022-08-17T07:35:44.092Z,30.03
2022-08-17T07:38:28.172Z,30.37
2022-08-17T07:41:01.091Z,30.56
2022-08-17T07:43:34.713Z,30.68
2022-08-17T07:46:40.035Z,30.97
2022-08-17T07:49:09.940Z,31.21
2022-08-17T07:51:41.138Z,31.24
2022-08-17T07:54:22.289Z,31.48
2022-08-17T07:57:01.455Z,31.41
2022-08-17T07:59:34.035Z,31.47
2022-08-17T08:02:23.327Z,31.28
2022-08-17T08:05:48.765Z,31.53
2022-08-17T08:08:22.775Z,31.76
2022-08-17T08:11:05.486Z,31.73
2022-08-17T08:13:33.418Z,31.55
2022-08-17T08:16:12.446Z,32.07
2022-08-17T08:18:55.915Z,32.19
2022-08-17T08:21:59.095Z,32.39
2022-08-17T08:25:08.908Z,32.61
2022-08-17T08:28:05.983Z,32.87
2022-08-17T08:30:41.459Z,33.00
2022-08-17T08:33:32.740Z,33.48
2022-08-17T08:36:57.109Z,33.76
2022-08-17T08:39:25.891Z,33.11
2022-08-17T08:42:43.185Z,32.57
2022-08-17T08:45:28.325Z,32.47
2022-08-17T08:48:53.122Z,32.73
2022-08-17T08:51:36.577Z,33.08
2022-08-17T08:54:20.361Z,33.01
2022-08-17T08:57:25.566Z,33.13
2022-08-17T09:00:00.809Z,33.59
2022-08-17T09:03:03.875Z,33.07
2022-08-17T09:06:28.675Z,33.10
2022-08-17T09:08:58.521Z,33.61
2022-08-17T09:12:02.024Z,33.59
2022-08-17T09:15:13.239Z,33.52
2022-08-17T09:19:02.431Z,33.06
2022-08-17T09:21:48.260Z,32.89
2022-08-17T09:24:32.089Z,33.64
2022-08-17T09:27:19.799Z,34.10
2022-08-17T09:29:52.347Z,33.75
2022-08-17T09:32:38.132Z,33.36
2022-08-17T09:35:22.877Z,33.71
2022-08-17T09:38:08.227Z,33.68
2022-08-17T09:40:46.503Z,34.33
2022-08-17T09:43:33.591Z,33.98
2022-08-17T09:46:10.136Z,33.16
2022-08-17T09:49:42.499Z,33.68
2022-08-17T09:52:20.081Z,33.86
2022-08-17T09:54:48.835Z,34.08
2022-08-17T09:57:31.417Z,34.44
2022-08-17T10:00:23.689Z,33.63
2022-08-17T10:03:50.919Z,33.74
2022-08-17T10:06:40.267Z,34.43
2022-08-17T10:09:35.531Z,35.17
2022-08-17T10:12:20.619Z,35.76
2022-08-17T10:15:18.959Z,35.43
2022-08-17T10:18:21.404Z,35.90
2022-08-17T10:21:30.068Z,35.85
2022-08-17T10:24:36.973Z,36.56
2022-08-17T10:27:11.621Z,36.91
2022-08-17T10:30:04.656Z,36.95
2022-08-17T10:32:43.364Z,36.07
2022-08-17T10:35:12.958Z,36.11
2022-08-17T10:38:16.758Z,36.91
2022-08-17T10:40:59.077Z,37.05
2022-08-17T10:43:57.815Z,37.74
2022-08-17T10:47:15.412Z,38.18
2022-08-17T10:49:53.730Z,38.27
2022-08-17T10:52:20.847Z,37.73
2022-08-17T10:54:51.431Z,37.29
2022-08-17T10:57:33.036Z,37.44
2022-08-17T11:00:40.180Z,37.06
2022-08-17T11:03:23.640Z,36.17
2022-08-17T11:06:06.343Z,35.67
2022-08-17T11:09:15.172Z,35.17
2022-08-17T11:12:26.262Z,35.52
2022-08-17T11:15:24.558Z,35.90
2022-08-17T11:18:35.744Z,36.89
2022-08-17T11:21:55.497Z,36.63
2022-08-17T11:24:46.936Z,36.49
2022-08-17T11:27:33.730Z,36.77
2022-08-17T11:30:44.511Z,37.16
2022-08-17T11:33:33.984Z,37.12
2022-08-17T11:36:19.691Z,37.74
2022-08-17T11:39:26.536Z,38.07
2022-08-17T11:42:47.290Z,37.88
2022-08-17T11:45:51.774Z,37.54
2022-08-17T11:49:18.730Z,37.23
2022-08-17T11:52:00.316Z,37.10
2022-08-17T11:54:33.396Z,37.37
2022-08-17T11:57:26.783Z,37.22
2022-08-17T12:00:08.359Z,37.10
2022-08-17T12:02:48.454Z,36.48
2022-08-17T12:05:18.307Z,36.74
2022-08-17T12:07:52.810Z,36.88
2022-08-17T12:10:31.936Z,37.60
2022-08-17T12:13:06.207Z,38.36
2022-08-17T12:15:42.422Z,38.56
2022-08-17T12:18:32.260Z,38.41
2022-08-17T12:21:26.331Z,39.05
2022-08-17T12:24:13.170Z,39.11
2022-08-17T12:26:44.132Z,38.76
2022-08-17T12:29:18.027Z,38.91
2022-08-17T12:32:07.014Z,38.80
2022-08-17T12:34:42.113Z,39.37
2022-08-17T12:37:26.142Z,38.61
2022-08-17T12:40:00.860Z,36.96
2022-08-17T12:42:34.791Z,36.97
2022-08-17T12:45:01.836Z,37.61
2022-08-17T12:47:30.425Z,38.28
2022-08-17T12:50:29.557Z,38.45
2022-08-17T12:53:02.281Z,38.96
2022-08-17T12:55:36.687Z,38.97
2022-08-17T12:58:09.935Z,37.79
2022-08-17T13:00:48.580Z,37.19
2022-08-17T13:03:19.330Z,37.60
2022-08-17T13:05:52.337Z,37.51
2022-08-17T13:08:26.138Z,37.02
2022-08-17T13:11:03.914Z,37.44
2022-08-17T13:13:38.995Z,37.74
2022-08-17T13:16:11.962Z,37.81
2022-08-17T13:18:50.889Z,37.94
2022-08-17T13:21:23.456Z,37.74
2022-08-17T13:24:09.949Z,37.56
2022-08-17T13:27:01.062Z,37.63
2022-08-17T13:29:53.816Z,38.01
2022-08-17T13:32:54.239Z,37.94
2022-08-17T13:35:47.135Z,37.88
2022-08-17T13:38:45.719Z,37.47
2022-08-17T13:41:40.503Z,37.36
2022-08-17T13:44:30.053Z,37.39
2022-08-17T13:47:01.000Z,36.79
2022-08-17T13:49:48.129Z,36.74
2022-08-17T13:52:54.154Z,36.50
2022-08-17T13:55:22.856Z,36.79
2022-08-17T13:58:03.881Z,36.86
2022-08-17T14:00:36.804Z,36.68
2022-08-17T14:03:05.833Z,36.65
2022-08-17T14:05:33.861Z,36.68
2022-08-17T14:08:06.694Z,36.55
2022-08-17T14:10:36.680Z,36.52
2022-08-17T14:13:09.403Z,36.75
2022-08-17T14:15:55.102Z,36.65
2022-08-17T14:18:55.733Z,36.50
2022-08-17T14:21:10.783Z,36.64
2022-08-17T14:23:38.394Z,36.84
2022-08-17T14:26:05.863Z,37.04
2022-08-17T14:28:32.912Z,37.22
2022-08-17T14:31:08.311Z,37.06
2022-08-17T14:33:35.273Z,37.26
2022-08-17T14:36:04.671Z,37.22
2022-08-17T14:38:35.790Z,37.34
2022-08-17T14:41:05.609Z,37.22
2022-08-17T14:43:34.770Z,37.06
2022-08-17T14:46:03.890Z,37.35
2022-08-17T14:48:32.995Z,37.14
2022-08-17T14:51:02.346Z,37.04
2022-08-17T14:53:31.977Z,37.04
2022-08-17T14:56:01.914Z,37.00
2022-08-17T14:58:29.678Z,36.70
2022-08-17T15:00:59.739Z,36.36
2022-08-17T15:03:30.494Z,36.36
2022-08-17T15:05:59.901Z,36.02
2022-08-17T15:08:26.846Z,35.89
2022-08-17T15:10:56.222Z,35.95
2022-08-17T15:13:27.552Z,36.03
2022-08-17T15:15:54.791Z,35.75
2022-08-17T15:18:25.061Z,36.03
2022-08-17T15:20:54.719Z,36.12
2022-08-17T15:23:24.498Z,36.09
2022-08-17T15:25:54.987Z,36.10
2022-08-17T15:28:22.979Z,35.92
2022-08-17T15:30:52.668Z,36.00
2022-08-17T15:33:30.427Z,35.86
2022-08-17T15:36:02.753Z,35.73
2022-08-17T15:38:30.805Z,35.81
2022-08-17T15:40:58.398Z,35.85
2022-08-17T15:43:32.525Z,35.94
2022-08-17T15:46:12.419Z,35.80
2022-08-17T15:48:42.897Z,35.86
2022-08-17T15:51:32.575Z,35.95
2022-08-17T15:54:17.135Z,35.76
2022-08-17T15:56:51.634Z,35.80
2022-08-17T15:59:20.757Z,35.61
2022-08-17T16:03:13.294Z,35.44
2022-08-17T16:04:35.928Z,35.30
2022-08-17T16:07:07.219Z,35.33
2022-08-17T16:09:34.115Z,35.42
2022-08-17T16:12:21.131Z,35.19
2022-08-17T16:14:50.497Z,35.19
2022-08-17T16:17:39.052Z,35.43
2022-08-17T16:20:20.290Z,35.23
2022-08-17T16:22:54.173Z,35.30
2022-08-17T16:25:50.414Z,35.06
2022-08-17T16:28:36.239Z,35.14
2022-08-17T16:31:08.180Z,35.08
2022-08-17T16:33:38.950Z,35.00
2022-08-17T16:36:10.309Z,34.62
2022-08-17T16:38:39.665Z,34.64
2022-08-17T16:41:06.730Z,34.61
2022-08-17T16:43:35.891Z,34.68
2022-08-17T16:46:02.794Z,34.47
2022-08-17T16:48:32.556Z,34.59
2022-08-17T16:51:02.978Z,34.48
2022-08-17T16:53:33.951Z,34.39
2022-08-17T16:56:00.829Z,34.44
2022-08-17T16:58:30.751Z,34.38
2022-08-17T17:01:00.186Z,34.25
2022-08-17T17:03:31.907Z,33.94
2022-08-17T17:06:27.769Z,34.08
2022-08-17T17:09:16.377Z,34.09
2022-08-17T17:11:50.800Z,34.06
2022-08-17T17:14:29.500Z,33.83
2022-08-17T17:17:06.003Z,33.53
2022-08-17T17:19:51.239Z,33.46
2022-08-17T17:23:05.260Z,33.20
2022-08-17T17:25:58.254Z,33.05
2022-08-17T17:29:11.000Z,32.87
2022-08-17T17:31:51.389Z,32.70
2022-08-17T17:34:22.194Z,32.46
2022-08-17T17:37:02.115Z,32.60
2022-08-17T17:39:44.138Z,32.56
2022-08-17T17:42:16.667Z,31.98
2022-08-17T17:45:05.604Z,30.90
2022-08-17T17:47:33.924Z,29.37
2022-08-17T17:50:06.487Z,28.72
2022-08-17T17:52:59.488Z,28.85
2022-08-17T17:55:47.561Z,28.24
2022-08-17T17:59:05.400Z,27.32
2022-08-17T18:01:57.135Z,27.42
2022-08-17T18:04:37.929Z,26.67
2022-08-17T18:07:26.900Z,26.44
2022-08-17T18:10:33.679Z,26.21
2022-08-17T18:13:26.708Z,26.29
2022-08-17T18:16:00.920Z,26.31
2022-08-17T18:18:44.178Z,26.43
2022-08-17T18:21:20.322Z,26.31
2022-08-17T18:24:02.820Z,26.13
2022-08-17T18:26:53.687Z,25.95
2022-08-17T18:29:38.822Z,26.08
2022-08-17T18:32:27.107Z,26.17
2022-08-17T18:35:27.638Z,26.34
2022-08-17T18:38:20.413Z,26.18
2022-08-17T18:41:30.405Z,26.23
2022-08-17T18:44:35.611Z,26.14
2022-08-17T18:47:40.513Z,26.16
2022-08-17T18:50:36.242Z,26.04
2022-08-17T18:53:33.229Z,25.78
2022-08-17T18:56:30.692Z,25.64
2022-08-17T18:59:26.950Z,25.80
2022-08-17T19:02:01.897Z,25.70
2022-08-17T19:04:42.670Z,25.91
2022-08-17T19:07:24.478Z,25.88
2022-08-17T19:10:02.663Z,25.86
2022-08-17T19:12:44.866Z,25.87
2022-08-17T19:15:18.157Z,25.62
2022-08-17T19:17:49.198Z,25.75
2022-08-17T19:20:38.622Z,25.95
2022-08-17T19:23:16.541Z,25.95
2022-08-17T19:25:52.659Z,25.86
2022-08-17T19:28:23.885Z,25.89
2022-08-17T19:31:04.914Z,25.93
2022-08-17T19:33:37.498Z,26.00
2022-08-17T19:36:21.449Z,25.87
2022-08-17T19:39:04.523Z,25.70
2022-08-17T19:41:48.942Z,25.78
2022-08-17T19:44:56.355Z,25.77
2022-08-17T19:47:59.538Z,25.91
2022-08-17T19:51:06.648Z,25.68
2022-08-17T19:54:03.647Z,25.70
2022-08-17T19:56:56.746Z,25.83
2022-08-17T20:00:01.154Z,25.95
2022-08-17T20:02:33.850Z,25.90
2022-08-17T20:05:07.409Z,25.88
2022-08-17T20:08:09.360Z,25.73
2022-08-17T20:10:54.870Z,25.47
2022-08-17T20:13:46.905Z,25.80
2022-08-17T20:16:13.945Z,25.88
2022-08-17T20:19:16.618Z,25.88
2022-08-17T20:21:59.266Z,25.75
2022-08-17T20:24:34.794Z,25.84
2022-08-17T20:27:31.672Z,25.67
2022-08-17T20:30:13.151Z,25.75
2022-08-17T20:33:00.316Z,25.68
2022-08-17T20:35:33.051Z,25.70
2022-08-17T20:38:25.049Z,25.73
2022-08-17T20:40:54.864Z,25.63
2022-08-17T20:43:37.722Z,25.63
2022-08-17T20:46:07.789Z,25.68
2022-08-17T20:48:41.646Z,25.53
2022-08-17T20:52:00.422Z,25.47
2022-08-17T20:54:42.585Z,25.23
2022-08-17T20:57:34.747Z,25.49
2022-08-17T21:00:18.279Z,25.62
2022-08-17T21:03:23.142Z,25.44
2022-08-17T21:06:17.044Z,25.12
2022-08-17T21:09:13.269Z,25.22
2022-08-17T21:12:04.317Z,25.19
2022-08-17T21:15:00.146Z,25.07
2022-08-17T21:17:49.948Z,25.02
2022-08-17T21:20:32.497Z,24.86
2022-08-17T21:23:21.078Z,24.89
2022-08-17T21:26:08.934Z,24.78
2022-08-17T21:29:01.405Z,24.93
2022-08-17T21:32:02.908Z,24.84
2022-08-17T21:34:43.127Z,24.78
2022-08-17T21:37:22.335Z,24.76
2022-08-17T21:40:21.416Z,24.62
2022-08-17T21:42:58.193Z,24.78
2022-08-17T21:45:37.711Z,24.67
2022-08-17T21:48:24.543Z,24.73
2022-08-17T21:51:18.240Z,24.76
2022-08-17T21:53:59.790Z,24.57
2022-08-17T21:56:31.446Z,24.61
2022-08-17T21:59:19.813Z,24.45
2022-08-17T22:02:19.814Z,24.59
2022-08-17T22:05:10.221Z,24.47
2022-08-17T22:08:16.833Z,24.55
2022-08-17T22:10:48.382Z,24.54
2022-08-17T22:13:29.438Z,24.42
2022-08-17T22:16:28.455Z,24.50
2022-08-17T22:18:59.272Z,24.38
2022-08-17T22:21:31.729Z,24.62
2022-08-17T22:24:07.659Z,24.53
2022-08-17T22:27:07.537Z,24.55
2022-08-17T22:29:57.101Z,24.49
2022-08-17T22:32:44.674Z,24.47
2022-08-17T22:35:36.671Z,24.29
2022-08-17T22:38:18.859Z,24.35
2022-08-17T22:40:52.988Z,24.29
2022-08-17T22:43:31.551Z,24.16
2022-08-17T22:46:01.953Z,24.18
2022-08-17T22:48:31.139Z,24.33
2022-08-17T22:51:15.020Z,24.24
2022-08-17T22:54:39.827Z,24.24
2022-08-17T22:57:32.725Z,24.32
2022-08-17T23:00:03.975Z,24.33
2022-08-17T23:02:34.309Z,24.22
2022-08-17T23:05:10.679Z,24.34
2022-08-17T23:07:40.534Z,24.26
2022-08-17T23:10:10.644Z,24.10
2022-08-17T23:12:40.644Z,24.32
2022-08-17T23:15:17.823Z,24.13
2022-08-17T23:17:49.568Z,24.04
2022-08-17T23:20:21.697Z,24.28
2022-08-17T23:22:52.790Z,24.35
2022-08-17T23:25:33.440Z,24.20
2022-08-17T23:28:03.115Z,24.27
2022-08-17T23:30:35.353Z,24.17
2022-08-17T23:33:10.361Z,24.22
2022-08-17T23:35:41.132Z,24.19
2022-08-17T23:38:10.950Z,24.34
2022-08-17T23:40:39.728Z,24.32
2022-08-17T23:43:23.491Z,24.28
2022-08-17T23:45:54.311Z,24.26
2022-08-17T23:48:36.270Z,24.25
2022-08-17T23:51:15.315Z,24.20
2022-08-17T23:53:47.653Z,24.37
2022-08-17T23:56:23.135Z,24.34
2022-08-17T23:58:50.195Z,24.42
